Time;durP1;ratioP1;P1;durP2;ratioP2;P2;SDS_P1;SDS_P2;PMS_P1;PMS_P2;Temp;Humidity;BMP_temperature;BMP_pressure;BME280_temperature;BME280_humidity;BME280_pressure;Samples;Min_cycle;Max_cycle;Signal;HPM_P1;HPM_P2
2022/03/29 00:01:59;;;;;;;40.97;20.27;;;;;;;;;;5097607;28;20027;-73
2022/03/29 00:04:25;;;;;;;35.40;18.00;;;;;;;;;;5099890;28;20169;-73
2022/03/29 00:06:51;;;;;;;39.97;19.77;;;;;;;;;;5098016;28;20035;-76
2022/03/29 00:09:16;;;;;;;37.60;21.17;;;;;;;;;;5099238;28;20031;-75
2022/03/29 00:11:42;;;;;;;21.45;13.88;;;;;;;;;;5087982;28;20030;-77
2022/03/29 00:14:08;;;;;;;22.58;13.25;;;;;;;;;;5101859;28;20065;-77
2022/03/29 00:16:34;;;;;;;23.50;14.02;;;;;;;;;;5099123;28;20406;-76
2022/03/29 00:18:59;;;;;;;23.40;13.77;;;;;;;;;;5098132;28;20028;-76
2022/03/29 00:21:25;;;;;;;23.80;13.88;;;;;;;;;;5098516;28;20038;-76
2022/03/29 00:23:50;;;;;;;26.05;15.70;;;;;;;;;;5098439;28;20052;-77
2022/03/29 00:26:16;;;;;;;51.08;26.67;;;;;;;;;;5088421;28;20439;-76
2022/03/29 00:28:42;;;;;;;36.47;20.80;;;;;;;;;;5099001;28;20023;-77
2022/03/29 00:31:08;;;;;;;30.90;18.98;;;;;;;;;;5088990;28;20027;-75
2022/03/29 00:33:33;;;;;;;26.50;17.00;;;;;;;;;;5085341;28;20015;-77
2022/03/29 00:35:58;;;;;;;21.70;14.02;;;;;;;;;;5094683;28;20032;-76
2022/03/29 00:38:24;;;;;;;26.60;15.60;;;;;;;;;;5095932;28;20020;-76
2022/03/29 00:40:49;;;;;;;26.25;14.60;;;;;;;;;;5090908;28;20431;-76
2022/03/29 00:43:14;;;;;;;31.80;17.88;;;;;;;;;;5098008;28;20085;-76
2022/03/29 00:45:40;;;;;;;47.85;23.15;;;;;;;;;;5097895;28;20063;-76
2022/03/29 00:48:07;;;;;;;31.20;16.80;;;;;;;;;;5099395;28;20035;-75
2022/03/29 00:50:33;;;;;;;22.60;12.60;;;;;;;;;;5098594;28;20167;-77
2022/03/29 00:52:59;;;;;;;58.67;32.17;;;;;;;;;;5099063;28;20031;-76
2022/03/29 00:55:24;;;;;;;50.22;24.05;;;;;;;;;;5098207;28;20040;-77
2022/03/29 00:57:50;;;;;;;50.22;24.50;;;;;;;;;;5097913;28;20024;-76
2022/03/29 01:00:16;;;;;;;50.85;26.00;;;;;;;;;;5096869;28;20036;-77
2022/03/29 01:02:42;;;;;;;44.40;25.08;;;;;;;;;;5098891;28;20809;-77
2022/03/29 01:05:07;;;;;;;38.30;23.15;;;;;;;;;;5099866;28;20034;-77
2022/03/29 01:07:33;;;;;;;51.35;28.42;;;;;;;;;;5099267;28;20358;-77
2022/03/29 01:10:01;;;;;;;43.47;21.75;;;;;;;;;;5097769;28;20028;-76
2022/03/29 01:12:28;;;;;;;44.38;26.48;;;;;;;;;;5095457;28;20023;-76
2022/03/29 01:14:53;;;;;;;28.48;16.70;;;;;;;;;;5098853;28;20019;-76
2022/03/29 01:20:07;;;;;;;35.85;20.48;;;;;;;;;;5092805;28;20030;-76
2022/03/29 01:22:32;;;;;;;30.67;16.90;;;;;;;;;;5098495;28;20032;-77
2022/03/29 01:24:58;;;;;;;29.65;16.45;;;;;;;;;;5095912;28;20074;-76
2022/03/29 01:27:24;;;;;;;30.33;17.90;;;;;;;;;;5094939;28;20050;-74
2022/03/29 01:29:52;;;;;;;24.95;16.80;;;;;;;;;;5097328;28;20354;-76
2022/03/29 01:32:17;;;;;;;33.58;18.80;;;;;;;;;;5094975;28;20020;-78
2022/03/29 01:34:43;;;;;;;24.52;15.23;;;;;;;;;;5099694;28;20039;-76
2022/03/29 01:37:09;;;;;;;23.48;14.82;;;;;;;;;;5097716;28;20030;-77
2022/03/29 01:39:35;;;;;;;26.35;15.80;;;;;;;;;;5111316;27;20032;-76
2022/03/29 01:42:00;;;;;;;25.52;14.93;;;;;;;;;;5097580;28;20075;-75
2022/03/29 01:44:26;;;;;;;20.40;12.88;;;;;;;;;;5096211;28;20053;-76
2022/03/29 01:46:51;;;;;;;22.45;13.50;;;;;;;;;;5096560;28;20794;-76
2022/03/29 01:49:17;;;;;;;20.52;14.02;;;;;;;;;;5099571;28;20067;-75
2022/03/29 01:51:43;;;;;;;68.18;36.65;;;;;;;;;;5095390;28;20024;-76
2022/03/29 01:54:08;;;;;;;68.13;37.83;;;;;;;;;;5096857;28;20381;-76
2022/03/29 01:56:34;;;;;;;66.78;37.28;;;;;;;;;;5082922;28;20022;-75
2022/03/29 01:59:03;;;;;;;51.63;27.55;;;;;;;;;;5095005;28;20480;-76
2022/03/29 02:01:29;;;;;;;37.53;21.60;;;;;;;;;;5096584;28;20035;-74
2022/03/29 02:03:54;;;;;;;35.10;20.98;;;;;;;;;;5095672;28;20418;-76
2022/03/29 02:06:20;;;;;;;32.95;19.23;;;;;;;;;;5098144;28;20031;-75
2022/03/29 02:08:45;;;;;;;50.65;29.13;;;;;;;;;;5099006;28;20460;-76
2022/03/29 02:11:10;;;;;;;33.55;18.90;;;;;;;;;;5113467;27;20031;-74
2022/03/29 02:13:36;;;;;;;38.10;21.15;;;;;;;;;;5095027;28;20027;-74
2022/03/29 02:16:01;;;;;;;49.97;27.92;;;;;;;;;;5083397;28;20020;-75
2022/03/29 02:18:26;;;;;;;35.20;21.65;;;;;;;;;;5081029;28;20046;-75
2022/03/29 02:20:52;;;;;;;38.28;23.88;;;;;;;;;;5082879;28;20098;-75
2022/03/29 02:23:17;;;;;;;21.88;13.90;;;;;;;;;;5084303;28;20027;-75
2022/03/29 02:25:46;;;;;;;20.27;13.15;;;;;;;;;;5087672;28;20095;-76
2022/03/29 02:28:11;;;;;;;21.85;14.30;;;;;;;;;;5094804;28;20047;-76
2022/03/29 02:30:36;;;;;;;21.35;13.40;;;;;;;;;;5096726;28;20027;-75
2022/03/29 02:33:02;;;;;;;18.98;11.32;;;;;;;;;;5096704;28;20072;-74
2022/03/29 02:35:28;;;;;;;18.55;11.55;;;;;;;;;;5096597;28;20027;-75
2022/03/29 02:37:53;;;;;;;17.20;10.93;;;;;;;;;;5096853;28;20028;-75
2022/03/29 02:40:19;;;;;;;17.40;10.98;;;;;;;;;;5096835;28;20336;-77
2022/03/29 02:42:45;;;;;;;21.48;12.77;;;;;;;;;;5096693;28;20090;-76
2022/03/29 02:45:14;;;;;;;22.00;13.10;;;;;;;;;;5081402;28;20051;-75
2022/03/29 02:47:40;;;;;;;19.52;12.02;;;;;;;;;;5086287;28;20072;-77
2022/03/29 02:50:05;;;;;;;16.52;10.55;;;;;;;;;;5095926;28;20476;-77
2022/03/29 02:52:31;;;;;;;19.67;10.10;;;;;;;;;;5098806;28;20028;-77
2022/03/29 02:54:56;;;;;;;18.17;11.07;;;;;;;;;;5100948;28;20027;-74
2022/03/29 02:57:22;;;;;;;15.73;11.35;;;;;;;;;;5102175;28;20030;-75
2022/03/29 02:59:48;;;;;;;29.13;17.45;;;;;;;;;;5100768;28;20038;-75
2022/03/29 03:02:13;;;;;;;31.88;19.23;;;;;;;;;;5101872;28;20031;-74
2022/03/29 03:04:38;;;;;;;19.27;13.48;;;;;;;;;;5088310;28;20088;-76
2022/03/29 03:07:04;;;;;;;19.33;13.30;;;;;;;;;;5090988;28;20330;-75
2022/03/29 03:09:29;;;;;;;23.75;12.85;;;;;;;;;;5095954;27;20032;-75
2022/03/29 03:11:55;;;;;;;26.20;14.32;;;;;;;;;;5099434;28;20035;-75
2022/03/29 03:14:20;;;;;;;43.03;22.00;;;;;;;;;;5092212;28;20534;-74
2022/03/29 03:16:45;;;;;;;28.77;17.45;;;;;;;;;;5098515;28;20027;-74
2022/03/29 03:19:12;;;;;;;25.05;17.15;;;;;;;;;;5097755;28;20148;-75
2022/03/29 03:21:37;;;;;;;26.00;15.38;;;;;;;;;;5091775;27;20431;-76
2022/03/29 03:24:03;;;;;;;22.20;13.65;;;;;;;;;;5099365;28;20020;-77
2022/03/29 03:26:28;;;;;;;23.52;13.63;;;;;;;;;;5082686;28;20024;-77
2022/03/29 03:28:53;;;;;;;20.20;12.88;;;;;;;;;;5085584;28;20023;-76
2022/03/29 03:31:19;;;;;;;25.23;14.57;;;;;;;;;;5101590;28;20096;-74
2022/03/29 03:33:44;;;;;;;23.08;13.90;;;;;;;;;;5100303;28;20741;-74
2022/03/29 03:36:10;;;;;;;19.17;11.85;;;;;;;;;;5102856;28;20059;-74
2022/03/29 03:38:36;;;;;;;17.75;11.85;;;;;;;;;;5090628;28;20511;-75
2022/03/29 03:41:01;;;;;;;14.48;9.55;;;;;;;;;;5098041;28;20119;-77
2022/03/29 03:43:26;;;;;;;18.30;10.18;;;;;;;;;;5098156;28;21404;-77
2022/03/29 03:45:52;;;;;;;17.98;10.40;;;;;;;;;;5097793;28;20139;-79
2022/03/29 03:48:17;;;;;;;16.88;11.00;;;;;;;;;;5085064;28;20488;-75
2022/03/29 03:50:42;;;;;;;15.95;10.45;;;;;;;;;;5084457;28;20051;-74
2022/03/29 03:53:08;;;;;;;19.75;12.63;;;;;;;;;;5101362;27;20063;-78
2022/03/29 03:55:33;;;;;;;17.58;12.07;;;;;;;;;;5083667;28;20032;-76
2022/03/29 03:57:59;;;;;;;49.83;30.98;;;;;;;;;;5097103;28;20057;-76
2022/03/29 04:00:24;;;;;;;43.33;25.65;;;;;;;;;;5095889;28;20350;-75
2022/03/29 04:02:50;;;;;;;29.27;19.77;;;;;;;;;;5084867;28;20035;-78
2022/03/29 04:05:16;;;;;;;23.55;14.15;;;;;;;;;;5095668;28;20417;-75
2022/03/29 04:07:41;;;;;;;21.63;12.45;;;;;;;;;;5099332;28;20023;-77
2022/03/29 04:10:07;;;;;;;31.95;18.27;;;;;;;;;;5100196;28;20385;-74
2022/03/29 04:12:33;;;;;;;104.03;52.00;;;;;;;;;;5098860;28;20804;-76
2022/03/29 04:14:58;;;;;;;171.15;89.80;;;;;;;;;;5098110;28;20040;-75
2022/03/29 04:17:24;;;;;;;110.28;55.83;;;;;;;;;;5088407;27;20042;-77
2022/03/29 04:19:49;;;;;;;65.07;34.65;;;;;;;;;;5091905;28;20042;-77
2022/03/29 04:22:18;;;;;;;52.28;30.20;;;;;;;;;;5084798;28;20072;-75
2022/03/29 04:24:44;;;;;;;31.03;16.47;;;;;;;;;;5087029;28;20122;-77
2022/03/29 04:27:09;;;;;;;25.30;14.02;;;;;;;;;;5087759;28;20405;-76
2022/03/29 04:29:34;;;;;;;22.52;12.57;;;;;;;;;;5099392;27;20118;-76
2022/03/29 04:32:00;;;;;;;27.20;17.67;;;;;;;;;;5085048;28;20030;-76
2022/03/29 04:34:25;;;;;;;32.03;19.50;;;;;;;;;;5092824;28;20358;-76
2022/03/29 04:36:50;;;;;;;23.35;16.17;;;;;;;;;;5097120;28;20116;-77
2022/03/29 04:39:16;;;;;;;25.38;14.82;;;;;;;;;;5097534;28;20067;-74
2022/03/29 04:41:41;;;;;;;23.08;15.20;;;;;;;;;;5086829;28;20035;-73
2022/03/29 04:44:07;;;;;;;21.85;13.52;;;;;;;;;;5097038;28;20032;-74
2022/03/29 04:46:32;;;;;;;22.48;15.00;;;;;;;;;;5088627;28;20451;-74
2022/03/29 04:48:57;;;;;;;18.25;12.45;;;;;;;;;;5087348;28;20102;-76
2022/03/29 04:51:23;;;;;;;18.42;12.48;;;;;;;;;;5092468;28;20026;-81
2022/03/29 04:53:48;;;;;;;54.38;35.88;;;;;;;;;;5082038;28;20020;-78
2022/03/29 04:56:13;;;;;;;54.15;36.08;;;;;;;;;;5085083;27;20028;-76
2022/03/29 04:58:39;;;;;;;51.03;32.17;;;;;;;;;;5083928;28;20023;-77
2022/03/29 05:01:05;;;;;;;61.90;42.05;;;;;;;;;;5084408;28;20016;-76
2022/03/29 05:03:33;;;;;;;44.88;31.80;;;;;;;;;;5082873;28;20076;-76
2022/03/29 05:05:59;;;;;;;66.75;46.05;;;;;;;;;;5093724;28;20044;-77
2022/03/29 05:08:24;;;;;;;135.68;77.43;;;;;;;;;;5096422;28;21198;-77
2022/03/29 05:10:50;;;;;;;116.95;67.13;;;;;;;;;;5098573;28;20027;-76
2022/03/29 05:13:15;;;;;;;66.75;40.05;;;;;;;;;;5089916;28;20244;-77
2022/03/29 05:15:41;;;;;;;47.08;33.22;;;;;;;;;;5093474;28;20042;-75
2022/03/29 05:18:06;;;;;;;42.55;27.48;;;;;;;;;;5092940;28;20024;-76
2022/03/29 05:20:32;;;;;;;31.30;24.00;;;;;;;;;;5081842;28;20115;-77
2022/03/29 05:22:57;;;;;;;23.00;15.38;;;;;;;;;;5081457;28;20028;-77
2022/03/29 05:25:23;;;;;;;51.45;27.58;;;;;;;;;;5088200;28;20027;-77
2022/03/29 05:27:49;;;;;;;79.00;43.05;;;;;;;;;;5097237;28;20177;-77
2022/03/29 05:30:15;;;;;;;55.42;32.20;;;;;;;;;;5097464;28;20245;-77
2022/03/29 05:32:40;;;;;;;55.08;30.77;;;;;;;;;;5091556;28;20019;-75
2022/03/29 05:35:09;;;;;;;31.83;17.00;;;;;;;;;;5084192;28;20039;-78
2022/03/29 05:37:35;;;;;;;24.45;13.82;;;;;;;;;;5083381;28;20032;-79
2022/03/29 05:40:00;;;;;;;18.85;12.95;;;;;;;;;;5086745;28;20511;-77
2022/03/29 05:42:26;;;;;;;18.55;12.23;;;;;;;;;;5081337;28;20066;-72
2022/03/29 05:44:51;;;;;;;21.10;12.43;;;;;;;;;;5087318;28;20027;-74
2022/03/29 05:50:01;;;;;;;48.30;26.90;;;;;;;;;;5102514;28;20067;-73
2022/03/29 05:52:26;;;;;;;34.20;22.83;;;;;;;;;;5105862;28;20075;-73
2022/03/29 05:54:52;;;;;;;38.25;23.45;;;;;;;;;;5095897;28;20287;-72
2022/03/29 05:57:17;;;;;;;32.90;21.77;;;;;;;;;;5087170;28;20024;-73
2022/03/29 05:59:46;;;;;;;30.20;15.65;;;;;;;;;;5095444;28;20101;-74
2022/03/29 06:02:12;;;;;;;23.65;14.23;;;;;;;;;;5094390;28;20028;-72
2022/03/29 06:04:37;;;;;;;25.30;14.80;;;;;;;;;;5096395;28;20035;-74
2022/03/29 06:07:04;;;;;;;36.60;25.88;;;;;;;;;;5093351;28;20042;-73
2022/03/29 06:09:30;;;;;;;36.05;22.65;;;;;;;;;;5094534;28;20028;-73
2022/03/29 06:11:55;;;;;;;34.50;19.00;;;;;;;;;;5096094;28;20088;-73
2022/03/29 06:14:21;;;;;;;34.40;23.40;;;;;;;;;;5098662;28;20039;-73
2022/03/29 06:16:46;;;;;;;50.15;30.95;;;;;;;;;;5095365;28;20071;-73
2022/03/29 06:19:11;;;;;;;75.07;44.47;;;;;;;;;;5097758;28;20039;-74
2022/03/29 06:21:37;;;;;;;87.88;51.90;;;;;;;;;;5097100;28;20415;-73
2022/03/29 06:24:07;;;;;;;105.15;58.33;;;;;;;;;;5096960;28;20150;-73
2022/03/29 06:26:34;;;;;;;114.25;63.53;;;;;;;;;;5095857;28;20442;-73
2022/03/29 06:28:59;;;;;;;75.50;43.80;;;;;;;;;;5094302;28;20028;-73
2022/03/29 06:31:25;;;;;;;45.60;25.83;;;;;;;;;;5095094;28;20033;-75
2022/03/29 06:33:50;;;;;;;43.75;27.48;;;;;;;;;;5096445;28;20146;-72
2022/03/29 06:36:17;;;;;;;46.03;28.27;;;;;;;;;;5095519;28;20019;-72
2022/03/29 06:38:42;;;;;;;33.85;20.38;;;;;;;;;;5096901;28;20142;-72
2022/03/29 06:41:10;;;;;;;29.77;18.05;;;;;;;;;;5096222;28;20106;-74
2022/03/29 06:43:36;;;;;;;47.85;25.98;;;;;;;;;;5096270;28;20142;-73
2022/03/29 06:46:02;;;;;;;39.45;26.52;;;;;;;;;;5096191;28;20470;-72
2022/03/29 06:48:27;;;;;;;24.33;16.38;;;;;;;;;;5097092;28;20028;-74
2022/03/29 06:50:53;;;;;;;20.02;13.80;;;;;;;;;;5096956;28;20054;-74
2022/03/29 06:53:18;;;;;;;23.08;13.80;;;;;;;;;;5096633;28;20119;-73
2022/03/29 06:55:43;;;;;;;21.65;13.95;;;;;;;;;;5093354;28;20027;-73
2022/03/29 06:58:09;;;;;;;24.38;16.05;;;;;;;;;;5099545;28;20020;-73
2022/03/29 07:00:35;;;;;;;20.83;11.10;;;;;;;;;;5092320;28;20412;-74
2022/03/29 07:03:00;;;;;;;18.65;11.23;;;;;;;;;;5096415;28;20019;-75
2022/03/29 07:05:26;;;;;;;17.50;10.85;;;;;;;;;;5094131;28;20027;-75
2022/03/29 07:07:51;;;;;;;19.50;10.38;;;;;;;;;;5095888;28;20027;-74
2022/03/29 07:13:01;;;;;;;17.98;11.32;;;;;;;;;;5095678;28;20104;-73
2022/03/29 07:15:27;;;;;;;14.95;10.27;;;;;;;;;;5096767;28;20050;-73
2022/03/29 07:17:52;;;;;;;16.88;9.65;;;;;;;;;;5095062;28;20055;-72
2022/03/29 07:20:19;;;;;;;20.85;9.93;;;;;;;;;;5097085;28;20153;-73
2022/03/29 07:22:45;;;;;;;21.50;14.27;;;;;;;;;;5096566;28;20044;-72
2022/03/29 07:25:11;;;;;;;16.08;9.68;;;;;;;;;;5095524;28;20032;-73
2022/03/29 07:27:36;;;;;;;17.48;10.93;;;;;;;;;;5098926;28;20027;-73
2022/03/29 07:30:03;;;;;;;19.50;11.40;;;;;;;;;;5098039;28;20031;-73
2022/03/29 07:32:29;;;;;;;14.63;9.52;;;;;;;;;;5096577;28;20024;-74
2022/03/29 07:34:55;;;;;;;12.63;9.05;;;;;;;;;;5096999;28;20080;-74
2022/03/29 07:37:21;;;;;;;23.48;11.63;;;;;;;;;;5094223;28;20027;-73
2022/03/29 07:39:47;;;;;;;26.30;17.00;;;;;;;;;;5100092;28;20030;-73
2022/03/29 07:42:12;;;;;;;18.23;10.30;;;;;;;;;;5100942;28;20032;-74
2022/03/29 07:44:38;;;;;;;38.00;19.50;;;;;;;;;;5100406;28;20135;-73
2022/03/29 07:47:03;;;;;;;36.05;18.30;;;;;;;;;;5100584;28;20099;-75
2022/03/29 07:49:29;;;;;;;19.83;11.18;;;;;;;;;;5098659;28;20036;-73
2022/03/29 07:51:55;;;;;;;25.58;14.25;;;;;;;;;;5101467;28;20031;-75
2022/03/29 07:54:20;;;;;;;16.25;9.50;;;;;;;;;;5086433;28;20118;-75
2022/03/29 07:56:46;;;;;;;24.67;15.32;;;;;;;;;;5098289;28;20067;-76
2022/03/29 07:59:12;;;;;;;18.90;11.55;;;;;;;;;;5084351;28;20990;-76
2022/03/29 08:01:37;;;;;;;20.40;13.65;;;;;;;;;;5081672;28;20028;-75
2022/03/29 08:04:03;;;;;;;17.20;11.35;;;;;;;;;;5081026;28;20020;-74
2022/03/29 08:06:29;;;;;;;72.03;49.00;;;;;;;;;;5082228;28;20065;-75
2022/03/29 08:08:55;;;;;;;21.40;15.35;;;;;;;;;;5080363;28;20120;-75
2022/03/29 08:11:22;;;;;;;18.15;9.43;;;;;;;;;;5076022;28;20108;-75
2022/03/29 08:13:47;;;;;;;22.83;11.77;;;;;;;;;;5080792;28;20020;-75
2022/03/29 08:16:12;;;;;;;21.13;12.13;;;;;;;;;;5081667;28;20039;-75
2022/03/29 08:18:39;;;;;;;17.70;11.23;;;;;;;;;;5084033;28;22731;-74
2022/03/29 08:21:47;;;;;;;18.15;10.55;;;;;;;;;;5084539;28;20023;-75
2022/03/29 08:23:50;;;;;;;16.67;11.38;;;;;;;;;;5081640;28;20059;-80
2022/03/29 08:26:15;;;;;;;20.48;13.90;;;;;;;;;;5079676;28;20175;-80
2022/03/29 08:28:41;;;;;;;22.92;13.55;;;;;;;;;;5078986;28;20040;-77
2022/03/29 08:31:06;;;;;;;20.70;12.77;;;;;;;;;;5083535;28;20034;-73
2022/03/29 08:33:31;;;;;;;21.80;12.32;;;;;;;;;;5082294;28;20154;-76
2022/03/29 08:35:57;;;;;;;16.75;10.55;;;;;;;;;;5080834;28;20501;-77
2022/03/29 08:38:22;;;;;;;20.83;12.82;;;;;;;;;;5080734;28;20036;-77
2022/03/29 08:40:48;;;;;;;22.52;12.77;;;;;;;;;;5080680;28;20028;-75
2022/03/29 08:43:15;;;;;;;19.67;12.32;;;;;;;;;;5080245;28;20089;-77
2022/03/29 08:45:43;;;;;;;21.88;13.85;;;;;;;;;;5079837;28;20744;-76
2022/03/29 08:48:08;;;;;;;19.95;11.63;;;;;;;;;;5083535;28;20028;-76
2022/03/29 08:50:36;;;;;;;23.80;13.50;;;;;;;;;;5080092;28;20047;-76
2022/03/29 08:53:02;;;;;;;32.58;16.00;;;;;;;;;;5081569;28;20519;-77
2022/03/29 08:55:27;;;;;;;17.77;11.63;;;;;;;;;;5081512;28;20038;-76
2022/03/29 08:57:55;;;;;;;20.27;12.90;;;;;;;;;;5083838;28;20302;-75
2022/03/29 09:00:21;;;;;;;23.50;13.82;;;;;;;;;;5082747;28;20064;-77
2022/03/29 09:02:47;;;;;;;20.75;14.75;;;;;;;;;;5079355;28;20024;-77
2022/03/29 09:05:16;;;;;;;31.65;17.80;;;;;;;;;;5080418;28;20020;-78
2022/03/29 09:07:45;;;;;;;23.73;14.90;;;;;;;;;;5081567;28;20089;-76
2022/03/29 09:10:12;;;;;;;30.60;17.80;;;;;;;;;;5078583;28;20088;-77
2022/03/29 09:12:38;;;;;;;22.80;14.95;;;;;;;;;;5081135;28;20032;-77
2022/03/29 09:15:04;;;;;;;31.17;19.73;;;;;;;;;;5082821;28;20036;-77
2022/03/29 09:17:38;;;;;;;21.40;13.32;;;;;;;;;;5079657;28;20485;-76
2022/03/29 09:20:05;;;;;;;27.48;15.40;;;;;;;;;;5080738;28;20034;-76
2022/03/29 09:22:37;;;;;;;25.13;16.67;;;;;;;;;;5082381;28;20035;-78
2022/03/29 09:25:03;;;;;;;20.23;13.73;;;;;;;;;;5080271;28;20055;-77
2022/03/29 09:27:28;;;;;;;22.38;13.63;;;;;;;;;;5083621;28;20032;-77
2022/03/29 09:30:07;;;;;;;20.60;14.30;;;;;;;;;;5079230;28;20028;-76
2022/03/29 09:32:32;;;;;;;28.90;16.45;;;;;;;;;;5081083;28;20424;-76
2022/03/29 09:35:05;;;;;;;20.30;13.90;;;;;;;;;;5080091;28;20119;-76
2022/03/29 09:37:34;;;;;;;23.02;12.88;;;;;;;;;;5079267;28;20030;-76
2022/03/29 09:40:00;;;;;;;16.45;11.65;;;;;;;;;;5078113;28;20042;-76
2022/03/29 09:42:27;;;;;;;25.67;14.25;;;;;;;;;;5079800;28;20331;-75
2022/03/29 09:44:57;;;;;;;21.65;12.85;;;;;;;;;;5081927;28;20038;-76
2022/03/29 09:47:22;;;;;;;20.27;13.27;;;;;;;;;;5077853;28;20034;-76
2022/03/29 09:49:49;;;;;;;26.00;13.52;;;;;;;;;;5078776;28;20052;-76
2022/03/29 09:52:15;;;;;;;20.52;13.20;;;;;;;;;;5079035;28;20474;-75
2022/03/29 09:54:41;;;;;;;25.25;13.90;;;;;;;;;;5080166;28;20042;-76
2022/03/29 09:57:09;;;;;;;24.08;13.63;;;;;;;;;;5081677;28;20148;-75
2022/03/29 09:59:47;;;;;;;19.30;12.52;;;;;;;;;;5077553;28;20023;-75
2022/03/29 10:02:12;;;;;;;24.67;13.48;;;;;;;;;;5080030;28;20045;-75
2022/03/29 10:04:37;;;;;;;23.70;13.93;;;;;;;;;;5077570;28;20028;-75
2022/03/29 10:07:04;;;;;;;22.95;13.93;;;;;;;;;;5086852;28;20027;-75
2022/03/29 10:09:31;;;;;;;23.85;14.13;;;;;;;;;;5093108;28;20039;-75
2022/03/29 10:11:58;;;;;;;16.77;12.27;;;;;;;;;;5093692;28;20043;-76
2022/03/29 10:14:25;;;;;;;18.60;13.50;;;;;;;;;;5082207;28;20027;-76
2022/03/29 10:16:51;;;;;;;18.60;13.60;;;;;;;;;;5085471;28;20039;-74
2022/03/29 10:19:18;;;;;;;22.42;15.75;;;;;;;;;;5092530;28;20032;-75
2022/03/29 10:21:44;;;;;;;19.73;13.73;;;;;;;;;;5093865;28;20055;-77
2022/03/29 10:24:12;;;;;;;23.02;15.00;;;;;;;;;;5094704;28;20028;-78
2022/03/29 10:26:39;;;;;;;23.15;14.82;;;;;;;;;;5092740;28;20028;-76
2022/03/29 10:29:06;;;;;;;24.23;15.20;;;;;;;;;;5095149;28;20458;-76
2022/03/29 10:31:36;;;;;;;26.40;16.42;;;;;;;;;;5094462;28;20036;-77
2022/03/29 10:34:21;;;;;;;29.38;20.08;;;;;;;;;;5097155;28;20027;-76
2022/03/29 10:36:58;;;;;;;22.67;16.02;;;;;;;;;;5096243;28;20016;-76
2022/03/29 10:39:37;;;;;;;25.13;15.00;;;;;;;;;;5096909;28;20437;-76
2022/03/29 10:42:22;;;;;;;19.83;14.35;;;;;;;;;;5096900;28;20467;-76
2022/03/29 10:45:13;;;;;;;22.98;14.90;;;;;;;;;;5097198;28;20786;-75
2022/03/29 10:47:39;;;;;;;25.15;15.90;;;;;;;;;;5093950;28;20063;-76
2022/03/29 10:50:06;;;;;;;28.08;15.65;;;;;;;;;;5097584;28;20036;-77
2022/03/29 10:52:50;;;;;;;44.72;24.23;;;;;;;;;;5097529;28;20337;-77
2022/03/29 10:55:20;;;;;;;31.98;19.52;;;;;;;;;;5098107;28;20024;-77
2022/03/29 10:58:05;;;;;;;30.80;19.70;;;;;;;;;;5098191;28;20054;-76
2022/03/29 11:00:31;;;;;;;29.85;19.90;;;;;;;;;;5097264;28;20027;-76
2022/03/29 11:03:05;;;;;;;30.27;19.20;;;;;;;;;;5096828;28;20030;-76
2022/03/29 11:05:30;;;;;;;35.38;22.25;;;;;;;;;;5096711;28;20063;-77
2022/03/29 11:07:56;;;;;;;24.63;17.77;;;;;;;;;;5098366;28;20028;-78
2022/03/29 11:10:23;;;;;;;33.00;18.10;;;;;;;;;;5095859;28;20020;-77
2022/03/29 11:12:52;;;;;;;24.25;17.10;;;;;;;;;;5099791;28;20027;-78
2022/03/29 11:15:47;;;;;;;30.38;18.73;;;;;;;;;;5100975;27;20027;-78
2022/03/29 11:18:30;;;;;;;25.98;15.85;;;;;;;;;;5096453;28;20113;-78
2022/03/29 11:21:02;;;;;;;22.25;15.85;;;;;;;;;;5097661;28;20568;-78
2022/03/29 11:23:31;;;;;;;25.38;17.30;;;;;;;;;;5098983;28;20038;-78
2022/03/29 11:25:56;;;;;;;25.97;17.47;;;;;;;;;;5099229;27;20605;-78
2022/03/29 11:28:22;;;;;;;23.50;16.92;;;;;;;;;;5100537;28;20023;-78
2022/03/29 11:30:52;;;;;;;24.55;17.05;;;;;;;;;;5101020;28;20059;-77
2022/03/29 11:33:17;;;;;;;24.52;16.88;;;;;;;;;;5096916;28;20028;-77
2022/03/29 11:35:51;;;;;;;24.67;16.42;;;;;;;;;;5101777;28;20042;-77
2022/03/29 11:38:16;;;;;;;34.72;18.55;;;;;;;;;;5096937;28;20090;-78
2022/03/29 11:40:42;;;;;;;23.35;16.23;;;;;;;;;;5097922;28;20400;-78
2022/03/29 11:43:12;;;;;;;20.70;15.75;;;;;;;;;;5100149;28;20047;-77
2022/03/29 11:45:39;;;;;;;22.17;15.68;;;;;;;;;;5099179;28;20043;-78
2022/03/29 11:48:11;;;;;;;24.45;16.02;;;;;;;;;;5099712;28;20139;-79
2022/03/29 11:50:43;;;;;;;20.00;14.02;;;;;;;;;;5099964;28;20054;-78
2022/03/29 11:53:22;;;;;;;28.92;19.30;;;;;;;;;;5097859;28;20024;-78
2022/03/29 11:55:54;;;;;;;17.60;14.20;;;;;;;;;;5099861;28;20058;-78
2022/03/29 11:58:21;;;;;;;18.80;14.40;;;;;;;;;;5098977;28;20032;-80
2022/03/29 12:00:46;;;;;;;20.08;14.95;;;;;;;;;;5100606;28;20524;-78
2022/03/29 12:03:12;;;;;;;21.58;15.23;;;;;;;;;;5100203;28;20104;-78
2022/03/29 12:05:38;;;;;;;19.25;16.35;;;;;;;;;;5100469;28;20092;-77
2022/03/29 12:08:04;;;;;;;22.08;15.85;;;;;;;;;;5101795;28;20016;-77
2022/03/29 12:10:30;;;;;;;19.23;14.40;;;;;;;;;;5100298;28;20062;-77
2022/03/29 12:12:55;;;;;;;20.95;15.15;;;;;;;;;;5098760;28;20654;-77
2022/03/29 12:15:22;;;;;;;20.67;15.07;;;;;;;;;;5099375;28;20093;-77
2022/03/29 12:18:40;;;;;;;26.23;17.25;;;;;;;;;;5099557;28;20020;-77
2022/03/29 12:20:39;;;;;;;27.98;17.60;;;;;;;;;;5099800;28;20020;-77
2022/03/29 12:23:17;;;;;;;23.20;16.33;;;;;;;;;;5099257;28;20023;-78
2022/03/29 12:25:43;;;;;;;21.48;17.00;;;;;;;;;;5101708;28;20027;-78
2022/03/29 12:28:09;;;;;;;21.23;14.60;;;;;;;;;;5100855;27;20076;-77
2022/03/29 12:30:34;;;;;;;24.55;15.27;;;;;;;;;;5096858;28;20024;-75
2022/03/29 12:33:00;;;;;;;28.55;15.60;;;;;;;;;;5100077;28;20103;-77
2022/03/29 12:35:27;;;;;;;20.27;14.50;;;;;;;;;;5098097;28;20035;-76
2022/03/29 12:38:03;;;;;;;21.17;14.57;;;;;;;;;;5100142;27;20030;-77
2022/03/29 12:40:28;;;;;;;22.80;15.20;;;;;;;;;;5097752;28;20011;-79
2022/03/29 12:43:01;;;;;;;19.70;14.75;;;;;;;;;;5097729;28;20092;-79
2022/03/29 12:45:27;;;;;;;18.33;13.40;;;;;;;;;;5099459;28;20040;-77
2022/03/29 12:47:53;;;;;;;26.10;15.75;;;;;;;;;;5097403;28;20054;-77
2022/03/29 12:50:18;;;;;;;27.52;18.58;;;;;;;;;;5099035;28;20502;-78
2022/03/29 12:52:44;;;;;;;44.60;29.25;;;;;;;;;;5100773;28;20045;-76
2022/03/29 12:55:13;;;;;;;34.08;21.58;;;;;;;;;;5098979;28;20077;-78
2022/03/29 12:57:38;;;;;;;;;;;;;;;;;;5100220;28;20019;-80
2022/03/29 13:00:06;;;;;;;25.98;16.85;;;;;;;;;;5098164;28;19915;-78
2022/03/29 13:02:34;;;;;;;19.80;13.52;;;;;;;;;;5097191;28;20040;-78
2022/03/29 13:05:01;;;;;;;28.90;22.73;;;;;;;;;;5098899;28;20035;-78
2022/03/29 13:07:39;;;;;;;23.58;18.35;;;;;;;;;;5098768;28;20024;-77
2022/03/29 13:10:13;;;;;;;24.88;16.50;;;;;;;;;;5097403;28;20024;-77
2022/03/29 13:13:05;;;;;;;21.63;14.32;;;;;;;;;;5099482;28;20100;-78
2022/03/29 13:15:42;;;;;;;21.95;13.80;;;;;;;;;;5097426;28;20047;-79
2022/03/29 13:18:23;;;;;;;23.85;14.23;;;;;;;;;;5099321;28;20019;-78
2022/03/29 13:20:49;;;;;;;24.63;16.95;;;;;;;;;;5100653;28;20032;-80
2022/03/29 13:23:28;;;;;;;23.48;16.73;;;;;;;;;;5097086;28;20414;-79
2022/03/29 13:25:53;;;;;;;20.88;13.65;;;;;;;;;;5112664;27;20031;-78
2022/03/29 13:28:19;;;;;;;26.63;21.20;;;;;;;;;;5095495;28;20434;-79
2022/03/29 13:30:44;;;;;;;19.15;14.95;;;;;;;;;;5095902;28;20015;-77
2022/03/29 13:33:10;;;;;;;22.42;15.32;;;;;;;;;;5099615;28;20092;-78
2022/03/29 13:35:41;;;;;;;18.80;14.75;;;;;;;;;;5097648;28;20043;-80
2022/03/29 13:38:06;;;;;;;18.60;12.45;;;;;;;;;;5095603;28;20023;-79
2022/03/29 13:40:32;;;;;;;19.05;13.77;;;;;;;;;;5097708;28;20484;-78
2022/03/29 13:42:57;;;;;;;23.38;17.02;;;;;;;;;;5095321;28;20274;-77
2022/03/29 13:45:23;;;;;;;22.92;16.67;;;;;;;;;;5091861;28;20046;-77
2022/03/29 13:47:48;;;;;;;26.00;17.40;;;;;;;;;;5081910;28;21058;-76
2022/03/29 13:50:13;;;;;;;24.75;18.25;;;;;;;;;;5090659;28;20131;-78
2022/03/29 13:52:39;;;;;;;20.80;14.90;;;;;;;;;;5098432;28;20028;-77
2022/03/29 13:55:04;;;;;;;20.77;16.17;;;;;;;;;;5095562;28;20031;-80
2022/03/29 13:57:29;;;;;;;24.80;17.67;;;;;;;;;;5099064;27;20031;-76
2022/03/29 13:59:55;;;;;;;19.58;15.75;;;;;;;;;;5105897;28;20024;-77
2022/03/29 14:02:20;;;;;;;17.73;13.93;;;;;;;;;;5106028;28;20031;-78
2022/03/29 14:04:46;;;;;;;16.80;13.43;;;;;;;;;;5102036;28;20388;-76
2022/03/29 14:07:11;;;;;;;15.80;12.52;;;;;;;;;;5098340;28;20031;-78
2022/03/29 14:09:36;;;;;;;20.90;15.73;;;;;;;;;;5089988;28;20143;-75
2022/03/29 14:12:03;;;;;;;18.55;16.08;;;;;;;;;;5098526;28;20130;-75
2022/03/29 14:14:28;;;;;;;18.13;14.35;;;;;;;;;;5095681;28;20027;-76
2022/03/29 14:16:54;;;;;;;21.17;14.38;;;;;;;;;;5095780;28;20023;-76
2022/03/29 14:19:19;;;;;;;19.45;14.27;;;;;;;;;;5091201;28;20016;-76
2022/03/29 14:21:45;;;;;;;18.67;14.35;;;;;;;;;;5086280;28;20051;-76
2022/03/29 14:24:10;;;;;;;17.58;13.30;;;;;;;;;;5092623;28;20437;-75
2022/03/29 14:26:36;;;;;;;17.40;13.48;;;;;;;;;;5081551;28;20060;-75